sensor_id;sensor_type;location;lat;lon;timestamp;P1;durP1;ratioP1;P2;durP2;ratioP2
41261;SDS011;29629;52.532;13.352;2024-02-28T00:02:01;110.20;;;66.72;;
41261;SDS011;29629;52.532;13.352;2024-02-28T00:04:29;112.20;;;68.05;;
41261;SDS011;29629;52.532;13.352;2024-02-28T00:06:56;112.63;;;66.97;;
41261;SDS011;29629;52.532;13.352;2024-02-28T00:09:23;124.60;;;70.50;;
41261;SDS011;29629;52.532;13.352;2024-02-28T00:11:50;119.00;;;69.15;;
41261;SDS011;29629;52.532;13.352;2024-02-28T00:14:17;109.10;;;66.47;;
41261;SDS011;29629;52.532;13.352;2024-02-28T00:16:45;120.07;;;68.88;;
41261;SDS011;29629;52.532;13.352;2024-02-28T00:19:13;117.43;;;67.97;;
41261;SDS011;29629;52.532;13.352;2024-02-28T00:21:41;121.10;;;69.07;;
41261;SDS011;29629;52.532;13.352;2024-02-28T00:24:08;119.03;;;70.72;;
41261;SDS011;29629;52.532;13.352;2024-02-28T00:26:39;109.28;;;66.78;;
41261;SDS011;29629;52.532;13.352;2024-02-28T00:29:07;112.60;;;68.00;;
41261;SDS011;29629;52.532;13.352;2024-02-28T00:31:34;120.30;;;68.22;;
41261;SDS011;29629;52.532;13.352;2024-02-28T00:34:01;112.32;;;67.95;;
41261;SDS011;29629;52.532;13.352;2024-02-28T00:36:28;121.88;;;68.57;;
41261;SDS011;29629;52.532;13.352;2024-02-28T00:38:56;116.05;;;69.03;;
41261;SDS011;29629;52.532;13.352;2024-02-28T00:41:23;117.65;;;70.57;;
41261;SDS011;29629;52.532;13.352;2024-02-28T00:43:50;115.43;;;69.63;;
41261;SDS011;29629;52.532;13.352;2024-02-28T00:46:17;118.28;;;69.45;;
41261;SDS011;29629;52.532;13.352;2024-02-28T00:48:43;115.25;;;69.75;;
41261;SDS011;29629;52.532;13.352;2024-02-28T00:51:10;108.10;;;67.28;;
41261;SDS011;29629;52.532;13.352;2024-02-28T00:53:37;126.43;;;71.32;;
41261;SDS011;29629;52.532;13.352;2024-02-28T00:56:06;120.07;;;70.53;;
41261;SDS011;29629;52.532;13.352;2024-02-28T00:58:33;112.07;;;67.15;;
41261;SDS011;29629;52.532;13.352;2024-02-28T01:01:00;117.07;;;68.90;;
41261;SDS011;29629;52.532;13.352;2024-02-28T01:03:27;124.50;;;70.93;;
41261;SDS011;29629;52.532;13.352;2024-02-28T01:05:54;119.95;;;68.93;;
41261;SDS011;29629;52.532;13.352;2024-02-28T01:08:20;119.03;;;69.13;;
41261;SDS011;29629;52.532;13.352;2024-02-28T01:10:48;115.38;;;68.20;;
41261;SDS011;29629;52.532;13.352;2024-02-28T01:13:17;115.88;;;69.03;;
41261;SDS011;29629;52.532;13.352;2024-02-28T01:15:44;141.63;;;75.65;;
41261;SDS011;29629;52.532;13.352;2024-02-28T01:18:11;124.10;;;71.45;;
41261;SDS011;29629;52.532;13.352;2024-02-28T01:20:38;120.82;;;70.65;;
41261;SDS011;29629;52.532;13.352;2024-02-28T01:23:05;119.75;;;69.00;;
41261;SDS011;29629;52.532;13.352;2024-02-28T01:25:32;126.10;;;70.55;;
41261;SDS011;29629;52.532;13.352;2024-02-28T01:27:59;112.55;;;68.22;;
41261;SDS011;29629;52.532;13.352;2024-02-28T01:30:27;117.05;;;69.72;;
41261;SDS011;29629;52.532;13.352;2024-02-28T01:32:54;118.05;;;69.53;;
41261;SDS011;29629;52.532;13.352;2024-02-28T01:35:21;124.68;;;70.40;;
41261;SDS011;29629;52.532;13.352;2024-02-28T01:37:47;117.72;;;68.90;;
41261;SDS011;29629;52.532;13.352;2024-02-28T01:40:14;122.07;;;69.40;;
41261;SDS011;29629;52.532;13.352;2024-02-28T01:42:41;115.65;;;68.65;;
41261;SDS011;29629;52.532;13.352;2024-02-28T01:45:09;118.25;;;70.10;;
41261;SDS011;29629;52.532;13.352;2024-02-28T01:47:41;121.63;;;70.30;;
41261;SDS011;29629;52.532;13.352;2024-02-28T01:50:09;113.75;;;68.65;;
41261;SDS011;29629;52.532;13.352;2024-02-28T01:52:37;115.45;;;68.50;;
41261;SDS011;29629;52.532;13.352;2024-02-28T01:55:05;118.18;;;69.05;;
41261;SDS011;29629;52.532;13.352;2024-02-28T01:57:32;114.40;;;68.30;;
41261;SDS011;29629;52.532;13.352;2024-02-28T02:00:02;117.65;;;69.03;;
41261;SDS011;29629;52.532;13.352;2024-02-28T02:02:29;116.03;;;68.93;;
41261;SDS011;29629;52.532;13.352;2024-02-28T02:04:57;113.15;;;67.88;;
41261;SDS011;29629;52.532;13.352;2024-02-28T02:07:24;116.88;;;68.88;;
41261;SDS011;29629;52.532;13.352;2024-02-28T02:09:52;115.60;;;67.55;;
41261;SDS011;29629;52.532;13.352;2024-02-28T02:12:19;112.85;;;67.07;;
41261;SDS011;29629;52.532;13.352;2024-02-28T02:14:47;111.10;;;66.45;;
41261;SDS011;29629;52.532;13.352;2024-02-28T02:17:14;116.95;;;68.82;;
41261;SDS011;29629;52.532;13.352;2024-02-28T02:19:41;111.20;;;67.13;;
41261;SDS011;29629;52.532;13.352;2024-02-28T02:22:10;109.15;;;67.03;;
41261;SDS011;29629;52.532;13.352;2024-02-28T02:24:41;108.38;;;65.78;;
41261;SDS011;29629;52.532;13.352;2024-02-28T02:27:08;114.13;;;67.97;;
41261;SDS011;29629;52.532;13.352;2024-02-28T02:29:35;105.80;;;65.65;;
41261;SDS011;29629;52.532;13.352;2024-02-28T02:32:02;121.63;;;70.45;;
41261;SDS011;29629;52.532;13.352;2024-02-28T02:34:29;113.80;;;67.57;;
41261;SDS011;29629;52.532;13.352;2024-02-28T02:36:56;108.82;;;66.80;;
41261;SDS011;29629;52.532;13.352;2024-02-28T02:39:23;110.40;;;66.88;;
41261;SDS011;29629;52.532;13.352;2024-02-28T02:41:51;109.50;;;66.28;;
41261;SDS011;29629;52.532;13.352;2024-02-28T02:44:18;109.43;;;66.60;;
41261;SDS011;29629;52.532;13.352;2024-02-28T02:46:45;112.45;;;67.20;;
41261;SDS011;29629;52.532;13.352;2024-02-28T02:49:13;114.90;;;67.80;;
41261;SDS011;29629;52.532;13.352;2024-02-28T02:51:40;108.25;;;66.10;;
41261;SDS011;29629;52.532;13.352;2024-02-28T02:54:08;112.03;;;66.88;;
41261;SDS011;29629;52.532;13.352;2024-02-28T02:56:35;100.97;;;64.65;;
41261;SDS011;29629;52.532;13.352;2024-02-28T02:59:03;124.55;;;66.38;;
41261;SDS011;29629;52.532;13.352;2024-02-28T03:01:30;109.75;;;66.20;;
41261;SDS011;29629;52.532;13.352;2024-02-28T03:03:57;112.15;;;66.97;;
41261;SDS011;29629;52.532;13.352;2024-02-28T03:06:24;107.28;;;64.88;;
41261;SDS011;29629;52.532;13.352;2024-02-28T03:08:51;121.32;;;69.18;;
41261;SDS011;29629;52.532;13.352;2024-02-28T03:11:18;110.38;;;67.07;;
41261;SDS011;29629;52.532;13.352;2024-02-28T03:13:45;115.65;;;67.18;;
41261;SDS011;29629;52.532;13.352;2024-02-28T03:16:13;109.13;;;65.80;;
41261;SDS011;29629;52.532;13.352;2024-02-28T03:18:40;113.25;;;68.00;;
41261;SDS011;29629;52.532;13.352;2024-02-28T03:21:07;123.82;;;69.07;;
41261;SDS011;29629;52.532;13.352;2024-02-28T03:23:34;109.85;;;66.45;;
41261;SDS011;29629;52.532;13.352;2024-02-28T03:26:01;113.10;;;67.50;;
41261;SDS011;29629;52.532;13.352;2024-02-28T03:28:29;103.88;;;65.03;;
41261;SDS011;29629;52.532;13.352;2024-02-28T03:30:56;105.43;;;65.90;;
41261;SDS011;29629;52.532;13.352;2024-02-28T03:33:24;114.78;;;67.68;;
41261;SDS011;29629;52.532;13.352;2024-02-28T03:35:51;123.35;;;69.97;;
41261;SDS011;29629;52.532;13.352;2024-02-28T03:38:18;98.40;;;63.45;;
41261;SDS011;29629;52.532;13.352;2024-02-28T03:40:45;112.47;;;66.95;;
41261;SDS011;29629;52.532;13.352;2024-02-28T03:43:12;112.03;;;66.25;;
41261;SDS011;29629;52.532;13.352;2024-02-28T03:45:39;151.20;;;77.53;;
41261;SDS011;29629;52.532;13.352;2024-02-28T03:48:06;110.25;;;66.93;;
41261;SDS011;29629;52.532;13.352;2024-02-28T03:50:34;106.05;;;65.43;;
41261;SDS011;29629;52.532;13.352;2024-02-28T03:53:02;105.85;;;65.25;;
41261;SDS011;29629;52.532;13.352;2024-02-28T03:55:30;107.38;;;65.82;;
41261;SDS011;29629;52.532;13.352;2024-02-28T03:57:56;107.72;;;65.47;;
41261;SDS011;29629;52.532;13.352;2024-02-28T04:00:24;111.47;;;66.03;;
41261;SDS011;29629;52.532;13.352;2024-02-28T04:02:51;99.80;;;63.65;;
41261;SDS011;29629;52.532;13.352;2024-02-28T04:05:18;106.75;;;65.55;;
41261;SDS011;29629;52.532;13.352;2024-02-28T04:07:47;104.43;;;64.18;;
41261;SDS011;29629;52.532;13.352;2024-02-28T04:10:13;111.35;;;66.40;;
41261;SDS011;29629;52.532;13.352;2024-02-28T04:12:42;105.28;;;65.15;;
41261;SDS011;29629;52.532;13.352;2024-02-28T04:15:10;106.72;;;65.78;;
41261;SDS011;29629;52.532;13.352;2024-02-28T04:17:37;104.25;;;65.07;;
41261;SDS011;29629;52.532;13.352;2024-02-28T04:20:07;107.13;;;65.50;;
41261;SDS011;29629;52.532;13.352;2024-02-28T04:22:35;95.60;;;62.33;;
41261;SDS011;29629;52.532;13.352;2024-02-28T04:25:03;109.80;;;66.25;;
41261;SDS011;29629;52.532;13.352;2024-02-28T04:27:32;106.25;;;65.20;;
41261;SDS011;29629;52.532;13.352;2024-02-28T04:29:58;104.88;;;64.65;;
41261;SDS011;29629;52.532;13.352;2024-02-28T04:32:25;110.80;;;66.57;;
41261;SDS011;29629;52.532;13.352;2024-02-28T04:34:52;108.63;;;65.25;;
41261;SDS011;29629;52.532;13.352;2024-02-28T04:37:19;114.22;;;66.53;;
41261;SDS011;29629;52.532;13.352;2024-02-28T04:39:46;109.53;;;65.30;;
41261;SDS011;29629;52.532;13.352;2024-02-28T04:42:15;106.30;;;65.30;;
41261;SDS011;29629;52.532;13.352;2024-02-28T04:44:42;109.90;;;66.13;;
41261;SDS011;29629;52.532;13.352;2024-02-28T04:47:09;111.63;;;66.53;;
41261;SDS011;29629;52.532;13.352;2024-02-28T04:49:36;104.50;;;64.10;;
41261;SDS011;29629;52.532;13.352;2024-02-28T04:52:04;111.18;;;66.13;;
41261;SDS011;29629;52.532;13.352;2024-02-28T04:54:32;111.57;;;67.32;;
41261;SDS011;29629;52.532;13.352;2024-02-28T04:56:58;115.55;;;68.47;;
41261;SDS011;29629;52.532;13.352;2024-02-28T04:59:27;97.15;;;63.33;;
41261;SDS011;29629;52.532;13.352;2024-02-28T05:01:54;105.15;;;65.32;;
41261;SDS011;29629;52.532;13.352;2024-02-28T05:04:21;106.30;;;65.45;;
41261;SDS011;29629;52.532;13.352;2024-02-28T05:06:48;105.53;;;65.32;;
41261;SDS011;29629;52.532;13.352;2024-02-28T05:09:16;105.88;;;64.72;;
41261;SDS011;29629;52.532;13.352;2024-02-28T05:11:43;105.45;;;64.93;;
41261;SDS011;29629;52.532;13.352;2024-02-28T05:14:10;112.85;;;67.72;;
41261;SDS011;29629;52.532;13.352;2024-02-28T05:16:38;104.57;;;64.65;;
41261;SDS011;29629;52.532;13.352;2024-02-28T05:19:05;104.68;;;64.65;;
41261;SDS011;29629;52.532;13.352;2024-02-28T05:21:38;108.10;;;64.95;;
41261;SDS011;29629;52.532;13.352;2024-02-28T05:24:06;103.55;;;63.25;;
41261;SDS011;29629;52.532;13.352;2024-02-28T05:26:33;104.75;;;64.80;;
41261;SDS011;29629;52.532;13.352;2024-02-28T05:29:01;107.35;;;65.22;;
41261;SDS011;29629;52.532;13.352;2024-02-28T05:31:28;105.32;;;65.07;;
41261;SDS011;29629;52.532;13.352;2024-02-28T05:33:58;106.07;;;65.57;;
41261;SDS011;29629;52.532;13.352;2024-02-28T05:36:26;101.03;;;63.22;;
41261;SDS011;29629;52.532;13.352;2024-02-28T05:38:55;107.13;;;65.20;;
41261;SDS011;29629;52.532;13.352;2024-02-28T05:41:23;108.00;;;65.68;;
41261;SDS011;29629;52.532;13.352;2024-02-28T05:43:51;107.60;;;65.78;;
41261;SDS011;29629;52.532;13.352;2024-02-28T05:46:18;106.13;;;65.63;;
41261;SDS011;29629;52.532;13.352;2024-02-28T05:48:47;98.18;;;62.17;;
41261;SDS011;29629;52.532;13.352;2024-02-28T05:51:15;103.30;;;64.20;;
41261;SDS011;29629;52.532;13.352;2024-02-28T05:53:43;103.40;;;64.47;;
41261;SDS011;29629;52.532;13.352;2024-02-28T05:56:10;103.65;;;64.95;;
41261;SDS011;29629;52.532;13.352;2024-02-28T05:58:39;105.72;;;65.30;;
41261;SDS011;29629;52.532;13.352;2024-02-28T06:01:08;107.50;;;66.75;;
41261;SDS011;29629;52.532;13.352;2024-02-28T06:03:35;101.70;;;64.63;;
41261;SDS011;29629;52.532;13.352;2024-02-28T06:06:02;114.68;;;66.65;;
41261;SDS011;29629;52.532;13.352;2024-02-28T06:08:32;108.88;;;66.30;;
41261;SDS011;29629;52.532;13.352;2024-02-28T06:10:59;104.03;;;64.63;;
41261;SDS011;29629;52.532;13.352;2024-02-28T06:13:26;109.57;;;66.07;;
41261;SDS011;29629;52.532;13.352;2024-02-28T06:15:53;114.53;;;67.78;;
41261;SDS011;29629;52.532;13.352;2024-02-28T06:18:20;111.28;;;66.93;;
41261;SDS011;29629;52.532;13.352;2024-02-28T06:20:51;117.57;;;68.20;;
41261;SDS011;29629;52.532;13.352;2024-02-28T06:23:18;107.22;;;65.60;;
41261;SDS011;29629;52.532;13.352;2024-02-28T06:25:47;136.30;;;73.75;;
41261;SDS011;29629;52.532;13.352;2024-02-28T06:28:14;96.65;;;65.35;;
41261;SDS011;29629;52.532;13.352;2024-02-28T06:30:42;99.40;;;67.45;;
41261;SDS011;29629;52.532;13.352;2024-02-28T06:33:09;108.25;;;71.03;;
41261;SDS011;29629;52.532;13.352;2024-02-28T06:35:36;120.53;;;72.60;;
41261;SDS011;29629;52.532;13.352;2024-02-28T06:38:03;107.15;;;69.75;;
41261;SDS011;29629;52.532;13.352;2024-02-28T06:40:30;115.25;;;73.18;;
41261;SDS011;29629;52.532;13.352;2024-02-28T06:42:58;106.90;;;71.28;;
41261;SDS011;29629;52.532;13.352;2024-02-28T06:45:25;115.63;;;72.25;;
41261;SDS011;29629;52.532;13.352;2024-02-28T06:47:52;107.80;;;71.18;;
41261;SDS011;29629;52.532;13.352;2024-02-28T06:50:19;105.68;;;69.90;;
41261;SDS011;29629;52.532;13.352;2024-02-28T06:52:46;108.38;;;76.85;;
41261;SDS011;29629;52.532;13.352;2024-02-28T06:55:13;104.32;;;69.68;;
41261;SDS011;29629;52.532;13.352;2024-02-28T06:57:41;112.80;;;69.80;;
41261;SDS011;29629;52.532;13.352;2024-02-28T07:00:10;109.20;;;70.53;;
41261;SDS011;29629;52.532;13.352;2024-02-28T07:02:39;106.82;;;68.00;;
41261;SDS011;29629;52.532;13.352;2024-02-28T07:05:07;109.97;;;70.40;;
41261;SDS011;29629;52.532;13.352;2024-02-28T07:07:34;111.65;;;68.63;;
41261;SDS011;29629;52.532;13.352;2024-02-28T07:10:02;106.22;;;67.85;;
41261;SDS011;29629;52.532;13.352;2024-02-28T07:12:30;111.40;;;70.15;;
41261;SDS011;29629;52.532;13.352;2024-02-28T07:14:57;106.75;;;69.60;;
41261;SDS011;29629;52.532;13.352;2024-02-28T07:17:26;114.38;;;70.50;;
41261;SDS011;29629;52.532;13.352;2024-02-28T07:19:53;106.05;;;68.65;;
41261;SDS011;29629;52.532;13.352;2024-02-28T07:22:20;101.28;;;67.38;;
41261;SDS011;29629;52.532;13.352;2024-02-28T07:24:47;106.75;;;69.18;;
41261;SDS011;29629;52.532;13.352;2024-02-28T07:27:14;122.15;;;73.38;;
41261;SDS011;29629;52.532;13.352;2024-02-28T07:29:42;108.78;;;69.35;;
41261;SDS011;29629;52.532;13.352;2024-02-28T07:32:09;107.90;;;69.25;;
41261;SDS011;29629;52.532;13.352;2024-02-28T07:34:37;114.43;;;71.50;;
41261;SDS011;29629;52.532;13.352;2024-02-28T07:37:05;107.30;;;68.68;;
41261;SDS011;29629;52.532;13.352;2024-02-28T07:39:32;99.07;;;66.78;;
41261;SDS011;29629;52.532;13.352;2024-02-28T07:41:59;106.63;;;67.85;;
41261;SDS011;29629;52.532;13.352;2024-02-28T07:44:25;103.90;;;67.70;;
41261;SDS011;29629;52.532;13.352;2024-02-28T07:46:55;100.07;;;65.43;;
41261;SDS011;29629;52.532;13.352;2024-02-28T07:49:23;111.65;;;70.10;;
41261;SDS011;29629;52.532;13.352;2024-02-28T07:51:52;101.30;;;65.32;;
41261;SDS011;29629;52.532;13.352;2024-02-28T07:54:18;104.80;;;67.25;;
41261;SDS011;29629;52.532;13.352;2024-02-28T07:56:45;104.32;;;67.95;;
41261;SDS011;29629;52.532;13.352;2024-02-28T07:59:12;101.82;;;68.13;;
41261;SDS011;29629;52.532;13.352;2024-02-28T08:01:39;105.57;;;66.93;;
41261;SDS011;29629;52.532;13.352;2024-02-28T08:04:06;107.05;;;69.10;;
41261;SDS011;29629;52.532;13.352;2024-02-28T08:06:33;104.90;;;68.85;;
41261;SDS011;29629;52.532;13.352;2024-02-28T08:09:01;105.80;;;67.63;;
41261;SDS011;29629;52.532;13.352;2024-02-28T08:11:29;109.45;;;68.75;;
41261;SDS011;29629;52.532;13.352;2024-02-28T08:13:56;101.20;;;66.25;;
41261;SDS011;29629;52.532;13.352;2024-02-28T08:16:23;103.32;;;67.38;;
41261;SDS011;29629;52.532;13.352;2024-02-28T08:18:50;103.45;;;66.72;;
41261;SDS011;29629;52.532;13.352;2024-02-28T08:21:17;109.07;;;68.82;;
41261;SDS011;29629;52.532;13.352;2024-02-28T08:23:45;116.50;;;71.30;;
41261;SDS011;29629;52.532;13.352;2024-02-28T08:26:14;105.85;;;66.68;;
41261;SDS011;29629;52.532;13.352;2024-02-28T08:28:41;106.60;;;68.85;;
41261;SDS011;29629;52.532;13.352;2024-02-28T08:31:08;109.93;;;70.68;;
41261;SDS011;29629;52.532;13.352;2024-02-28T08:33:34;108.13;;;69.40;;
41261;SDS011;29629;52.532;13.352;2024-02-28T08:36:02;101.25;;;67.40;;
41261;SDS011;29629;52.532;13.352;2024-02-28T08:38:30;98.20;;;65.15;;
41261;SDS011;29629;52.532;13.352;2024-02-28T08:40:57;101.00;;;66.75;;
41261;SDS011;29629;52.532;13.352;2024-02-28T08:43:25;106.07;;;68.97;;
41261;SDS011;29629;52.532;13.352;2024-02-28T08:45:52;124.78;;;73.30;;
41261;SDS011;29629;52.532;13.352;2024-02-28T08:48:20;111.72;;;71.05;;
41261;SDS011;29629;52.532;13.352;2024-02-28T08:50:47;102.72;;;72.82;;
41261;SDS011;29629;52.532;13.352;2024-02-28T08:53:15;106.68;;;68.38;;
41261;SDS011;29629;52.532;13.352;2024-02-28T08:55:42;134.93;;;77.50;;
41261;SDS011;29629;52.532;13.352;2024-02-28T08:58:09;108.22;;;68.65;;
41261;SDS011;29629;52.532;13.352;2024-02-28T09:00:37;104.38;;;68.18;;
41261;SDS011;29629;52.532;13.352;2024-02-28T09:03:04;108.03;;;67.30;;
41261;SDS011;29629;52.532;13.352;2024-02-28T09:05:31;110.80;;;70.95;;
41261;SDS011;29629;52.532;13.352;2024-02-28T09:07:58;121.35;;;75.15;;
41261;SDS011;29629;52.532;13.352;2024-02-28T09:10:26;115.22;;;72.53;;
41261;SDS011;29629;52.532;13.352;2024-02-28T09:12:54;108.85;;;71.47;;
41261;SDS011;29629;52.532;13.352;2024-02-28T09:15:20;114.60;;;72.53;;
41261;SDS011;29629;52.532;13.352;2024-02-28T09:17:49;100.30;;;68.10;;
41261;SDS011;29629;52.532;13.352;2024-02-28T09:20:16;106.97;;;68.47;;
41261;SDS011;29629;52.532;13.352;2024-02-28T09:22:43;100.93;;;66.78;;
41261;SDS011;29629;52.532;13.352;2024-02-28T09:25:10;110.55;;;68.00;;
41261;SDS011;29629;52.532;13.352;2024-02-28T09:27:37;110.93;;;71.63;;
41261;SDS011;29629;52.532;13.352;2024-02-28T09:30:04;114.05;;;71.45;;
41261;SDS011;29629;52.532;13.352;2024-02-28T09:32:32;106.80;;;68.28;;
41261;SDS011;29629;52.532;13.352;2024-02-28T09:35:01;107.78;;;70.25;;
41261;SDS011;29629;52.532;13.352;2024-02-28T09:37:29;111.30;;;72.50;;
41261;SDS011;29629;52.532;13.352;2024-02-28T09:39:56;107.07;;;69.65;;
41261;SDS011;29629;52.532;13.352;2024-02-28T09:42:24;109.05;;;72.20;;
41261;SDS011;29629;52.532;13.352;2024-02-28T09:44:51;113.53;;;70.50;;
41261;SDS011;29629;52.532;13.352;2024-02-28T09:47:18;111.82;;;70.93;;
41261;SDS011;29629;52.532;13.352;2024-02-28T09:49:45;111.50;;;70.05;;
41261;SDS011;29629;52.532;13.352;2024-02-28T09:52:15;106.03;;;68.93;;
41261;SDS011;29629;52.532;13.352;2024-02-28T09:54:42;109.65;;;70.78;;
41261;SDS011;29629;52.532;13.352;2024-02-28T09:57:10;112.20;;;72.88;;
41261;SDS011;29629;52.532;13.352;2024-02-28T09:59:38;111.47;;;73.57;;
41261;SDS011;29629;52.532;13.352;2024-02-28T10:02:06;110.15;;;71.55;;
41261;SDS011;29629;52.532;13.352;2024-02-28T10:04:37;116.80;;;73.55;;
41261;SDS011;29629;52.532;13.352;2024-02-28T10:07:16;112.00;;;73.78;;
41261;SDS011;29629;52.532;13.352;2024-02-28T10:09:44;108.70;;;71.03;;
41261;SDS011;29629;52.532;13.352;2024-02-28T10:12:11;107.43;;;72.70;;
41261;SDS011;29629;52.532;13.352;2024-02-28T10:14:38;106.18;;;71.93;;
41261;SDS011;29629;52.532;13.352;2024-02-28T10:17:05;108.50;;;71.55;;
41261;SDS011;29629;52.532;13.352;2024-02-28T10:19:33;110.88;;;73.38;;
41261;SDS011;29629;52.532;13.352;2024-02-28T10:22:00;114.00;;;74.45;;
41261;SDS011;29629;52.532;13.352;2024-02-28T10:24:29;105.90;;;69.55;;
41261;SDS011;29629;52.532;13.352;2024-02-28T10:27:00;104.13;;;69.85;;
41261;SDS011;29629;52.532;13.352;2024-02-28T10:29:28;107.55;;;72.20;;
41261;SDS011;29629;52.532;13.352;2024-02-28T10:31:57;108.05;;;72.05;;
41261;SDS011;29629;52.532;13.352;2024-02-28T10:34:24;108.68;;;72.72;;
41261;SDS011;29629;52.532;13.352;2024-02-28T10:36:52;102.90;;;69.80;;
41261;SDS011;29629;52.532;13.352;2024-02-28T10:39:19;107.22;;;71.63;;
41261;SDS011;29629;52.532;13.352;2024-02-28T10:41:49;110.30;;;71.93;;
41261;SDS011;29629;52.532;13.352;2024-02-28T10:44:18;108.88;;;71.80;;
41261;SDS011;29629;52.532;13.352;2024-02-28T10:46:48;106.90;;;72.15;;
41261;SDS011;29629;52.532;13.352;2024-02-28T10:49:16;108.05;;;72.30;;
41261;SDS011;29629;52.532;13.352;2024-02-28T10:51:44;107.53;;;70.72;;
41261;SDS011;29629;52.532;13.352;2024-02-28T10:54:14;108.95;;;72.10;;
41261;SDS011;29629;52.532;13.352;2024-02-28T10:56:42;112.30;;;73.20;;
41261;SDS011;29629;52.532;13.352;2024-02-28T10:59:11;109.90;;;71.85;;
41261;SDS011;29629;52.532;13.352;2024-02-28T11:01:39;112.20;;;72.53;;
41261;SDS011;29629;52.532;13.352;2024-02-28T11:04:08;109.72;;;72.90;;
41261;SDS011;29629;52.532;13.352;2024-02-28T11:06:46;118.78;;;75.07;;
41261;SDS011;29629;52.532;13.352;2024-02-28T11:09:18;107.85;;;72.93;;
41261;SDS011;29629;52.532;13.352;2024-02-28T11:11:47;109.97;;;72.22;;
41261;SDS011;29629;52.532;13.352;2024-02-28T11:14:16;108.45;;;70.63;;
41261;SDS011;29629;52.532;13.352;2024-02-28T11:16:46;114.07;;;73.88;;
41261;SDS011;29629;52.532;13.352;2024-02-28T11:19:20;111.57;;;71.15;;
41261;SDS011;29629;52.532;13.352;2024-02-28T11:21:51;107.50;;;70.90;;
41261;SDS011;29629;52.532;13.352;2024-02-28T11:24:22;102.13;;;70.57;;
41261;SDS011;29629;52.532;13.352;2024-02-28T11:26:50;109.93;;;72.65;;
41261;SDS011;29629;52.532;13.352;2024-02-28T11:29:22;109.63;;;73.25;;
41261;SDS011;29629;52.532;13.352;2024-02-28T11:31:51;104.40;;;71.88;;
41261;SDS011;29629;52.532;13.352;2024-02-28T11:34:21;108.38;;;78.97;;
41261;SDS011;29629;52.532;13.352;2024-02-28T11:36:48;107.53;;;71.70;;
41261;SDS011;29629;52.532;13.352;2024-02-28T11:39:16;109.35;;;72.57;;
41261;SDS011;29629;52.532;13.352;2024-02-28T11:41:45;111.80;;;73.78;;
41261;SDS011;29629;52.532;13.352;2024-02-28T11:44:12;105.13;;;72.63;;
41261;SDS011;29629;52.532;13.352;2024-02-28T11:46:44;106.57;;;72.35;;
41261;SDS011;29629;52.532;13.352;2024-02-28T11:49:11;110.78;;;72.60;;
41261;SDS011;29629;52.532;13.352;2024-02-28T11:51:39;106.68;;;72.00;;
41261;SDS011;29629;52.532;13.352;2024-02-28T11:54:07;108.75;;;73.22;;
41261;SDS011;29629;52.532;13.352;2024-02-28T11:56:35;107.72;;;71.88;;
41261;SDS011;29629;52.532;13.352;2024-02-28T11:59:03;103.47;;;71.53;;
41261;SDS011;29629;52.532;13.352;2024-02-28T12:01:34;102.28;;;68.30;;
41261;SDS011;29629;52.532;13.352;2024-02-28T12:04:04;107.97;;;71.85;;
41261;SDS011;29629;52.532;13.352;2024-02-28T12:06:32;104.28;;;72.07;;
41261;SDS011;29629;52.532;13.352;2024-02-28T12:09:00;106.72;;;74.28;;
41261;SDS011;29629;52.532;13.352;2024-02-28T12:11:29;110.93;;;73.53;;
41261;SDS011;29629;52.532;13.352;2024-02-28T12:13:56;107.47;;;70.43;;
41261;SDS011;29629;52.532;13.352;2024-02-28T12:16:24;100.30;;;69.28;;
41261;SDS011;29629;52.532;13.352;2024-02-28T12:18:52;101.70;;;70.82;;
41261;SDS011;29629;52.532;13.352;2024-02-28T12:21:21;103.85;;;71.10;;
41261;SDS011;29629;52.532;13.352;2024-02-28T12:23:48;103.10;;;70.00;;
41261;SDS011;29629;52.532;13.352;2024-02-28T12:26:16;101.85;;;70.38;;
41261;SDS011;29629;52.532;13.352;2024-02-28T12:28:44;95.63;;;64.07;;
41261;SDS011;29629;52.532;13.352;2024-02-28T12:31:11;104.07;;;65.25;;
41261;SDS011;29629;52.532;13.352;2024-02-28T12:33:38;112.57;;;68.70;;
41261;SDS011;29629;52.532;13.352;2024-02-28T12:36:05;100.82;;;65.10;;
41261;SDS011;29629;52.532;13.352;2024-02-28T12:38:34;109.82;;;67.13;;
41261;SDS011;29629;52.532;13.352;2024-02-28T12:41:01;109.82;;;67.55;;
41261;SDS011;29629;52.532;13.352;2024-02-28T12:43:29;103.10;;;65.80;;
41261;SDS011;29629;52.532;13.352;2024-02-28T12:45:57;105.20;;;66.00;;
41261;SDS011;29629;52.532;13.352;2024-02-28T12:48:24;102.85;;;65.75;;
41261;SDS011;29629;52.532;13.352;2024-02-28T12:50:51;108.50;;;66.95;;
41261;SDS011;29629;52.532;13.352;2024-02-28T12:53:18;105.68;;;67.10;;
41261;SDS011;29629;52.532;13.352;2024-02-28T12:55:46;144.27;;;76.72;;
41261;SDS011;29629;52.532;13.352;2024-02-28T12:58:13;109.35;;;67.57;;
41261;SDS011;29629;52.532;13.352;2024-02-28T13:00:40;111.72;;;68.22;;
41261;SDS011;29629;52.532;13.352;2024-02-28T13:03:07;109.78;;;68.00;;
41261;SDS011;29629;52.532;13.352;2024-02-28T13:05:34;131.32;;;73.38;;
41261;SDS011;29629;52.532;13.352;2024-02-28T13:08:02;104.60;;;66.65;;
41261;SDS011;29629;52.532;13.352;2024-02-28T13:10:29;105.97;;;67.20;;
41261;SDS011;29629;52.532;13.352;2024-02-28T13:13:00;108.07;;;67.57;;
41261;SDS011;29629;52.532;13.352;2024-02-28T13:15:28;116.05;;;70.00;;
41261;SDS011;29629;52.532;13.352;2024-02-28T13:17:55;109.10;;;68.05;;
41261;SDS011;29629;52.532;13.352;2024-02-28T13:20:22;111.95;;;69.38;;
41261;SDS011;29629;52.532;13.352;2024-02-28T13:22:49;112.95;;;69.47;;
41261;SDS011;29629;52.532;13.352;2024-02-28T13:25:16;114.68;;;70.60;;
41261;SDS011;29629;52.532;13.352;2024-02-28T13:27:44;113.70;;;70.55;;
41261;SDS011;29629;52.532;13.352;2024-02-28T13:30:13;109.00;;;69.53;;
41261;SDS011;29629;52.532;13.352;2024-02-28T13:32:40;106.15;;;68.07;;
41261;SDS011;29629;52.532;13.352;2024-02-28T13:35:07;106.97;;;68.32;;
41261;SDS011;29629;52.532;13.352;2024-02-28T13:37:35;115.88;;;69.60;;
41261;SDS011;29629;52.532;13.352;2024-02-28T13:40:05;108.88;;;68.78;;
41261;SDS011;29629;52.532;13.352;2024-02-28T13:42:35;107.50;;;68.32;;
41261;SDS011;29629;52.532;13.352;2024-02-28T13:45:02;120.93;;;71.13;;
41261;SDS011;29629;52.532;13.352;2024-02-28T13:47:33;116.95;;;71.05;;
41261;SDS011;29629;52.532;13.352;2024-02-28T13:50:00;108.07;;;67.90;;
41261;SDS011;29629;52.532;13.352;2024-02-28T13:52:27;108.28;;;67.93;;
41261;SDS011;29629;52.532;13.352;2024-02-28T13:54:55;110.72;;;69.00;;
41261;SDS011;29629;52.532;13.352;2024-02-28T13:57:22;112.68;;;70.00;;
41261;SDS011;29629;52.532;13.352;2024-02-28T13:59:49;109.13;;;69.18;;